Главная страница
METAR-TAF:

METAR-TAF

Аэропорты :

Кутаиси, Грузия

широта: 42-10-35N, долгота: 042-28-57E, высота над уровнем моря: 68 м

Текущие метеонаблюдения

Эта сводка был подготовлена 16 минут назад, в 12:00 UTC
Ветер 3 Узел переменных направлений
Температура 16°C
Влажность 42%
Давление 1017 hPa
Видимость 10 км и более
Нет облачности ниже 1500 м, и нет кучево-дождевой облачности

METAR: UGKO 151200Z VRB03KT CAVOK 16/03 Q1017 R07/09//70 NOSIG

Время: 16:16 (12:16 UTC)

Прогноз

Эта сводка был подготовлена 1 час и 16 минут назад, в 11:00 UTC
Прогноз действительный с 15-го 12 UTC до 16-го 12 UTC
Ветер 7 Узел от восточный
Видимость 10 км и более
Нет облачности ниже 1500 м, и нет кучево-дождевой облачности
временами
С 16-го 06 UTC до 16-го 12 UTC
Ветер 17 Узел от восточный

TAF: UGKO 151100Z 1512/1612 10007KT CAVOK TX17/1611Z TN05/1603Z TEMPO 1606/1612 09017KT

Метеонаблюдения и прогнозы для более 4000 аэропортов (сводки METAR и TAF).

Имеющиеся станции представлены на карте желтыми и красными точками.

Чтобы увидеть название станции, наведите на нее мышь.

Затем щелкните, чтобы увидеть метеонаблюдения и метеопрогнозы.

Управление картой: чтобы увеличить масштаб, щелкните зеленые кнопки с черным крестиком; чтобы уменьшить масштаб, щелкните зеленую кнопку с тире; для просмотра соседних карт щелкайте зеленые стрелки.


METAR-TAF: